Time;durP1;ratioP1;P1;durP2;ratioP2;P2;SDS_P1;SDS_P2;PMS_P1;PMS_P2;Temp;Humidity;BMP_temperature;BMP_pressure;BME280_temperature;BME280_humidity;BME280_pressure;Samples;Min_cycle;Max_cycle;Signal;HPM_P1;HPM_P2
2021/07/28 00:01:08;;;;;;;8.23;6.97;;;;;;;;;;3567711;40;20357;-70
2021/07/28 00:03:34;;;;;;;6.80;6.05;;;;;;;;;;3567583;40;20390;-71
2021/07/28 00:06:00;;;;;;;7.05;5.97;;;;;;;;;;3567776;40;20393;-71
2021/07/28 00:08:26;;;;;;;8.77;6.28;;;;;;;;;;3568107;40;20646;-72
2021/07/28 00:10:53;;;;;;;9.23;6.80;;;;;;;;;;3568252;40;20404;-72
2021/07/28 00:13:20;;;;;;;9.45;6.80;;;;;;;;;;3563274;40;20461;-72
2021/07/28 00:15:46;;;;;;;8.57;6.47;;;;;;;;;;3566322;40;20374;-72
2021/07/28 00:18:20;;;;;;;8.77;6.88;;;;;;;;;;3566388;40;20385;-72
2021/07/28 00:23:13;;;;;;;8.88;6.72;;;;;;;;;;3567485;40;20414;-72
2021/07/28 00:25:40;;;;;;;7.10;6.35;;;;;;;;;;3564912;40;20362;-72
2021/07/28 00:28:07;;;;;;;12.07;7.50;;;;;;;;;;3570510;40;20374;-71
2021/07/28 00:30:34;;;;;;;9.70;7.10;;;;;;;;;;3560861;40;20385;-70
2021/07/28 00:33:01;;;;;;;7.95;6.28;;;;;;;;;;3567939;40;20783;-70
2021/07/28 00:35:27;;;;;;;6.93;6.22;;;;;;;;;;3557102;40;20419;-72
2021/07/28 00:37:55;;;;;;;6.25;5.65;;;;;;;;;;3567933;40;20434;-71
2021/07/28 00:40:21;;;;;;;6.43;5.35;;;;;;;;;;3566411;40;20649;-70
2021/07/28 00:42:47;;;;;;;6.53;5.78;;;;;;;;;;3566157;40;20382;-70
2021/07/28 00:45:14;;;;;;;8.10;6.65;;;;;;;;;;3567503;40;20371;-71
2021/07/28 00:47:41;;;;;;;6.97;5.68;;;;;;;;;;3567245;40;20489;-71
2021/07/28 00:50:08;;;;;;;8.63;6.35;;;;;;;;;;3567399;40;20465;-71
2021/07/28 00:52:38;;;;;;;10.27;7.53;;;;;;;;;;3567202;40;20393;-71
2021/07/28 00:55:05;;;;;;;7.85;6.80;;;;;;;;;;3563766;40;20387;-71
2021/07/28 00:57:31;;;;;;;6.68;6.00;;;;;;;;;;3562660;40;20447;-74
2021/07/28 00:59:57;;;;;;;8.50;6.35;;;;;;;;;;3562310;40;20380;-72
2021/07/28 01:02:23;;;;;;;11.50;6.37;;;;;;;;;;3562127;40;20384;-71
2021/07/28 01:04:51;;;;;;;9.50;7.38;;;;;;;;;;3561675;40;20426;-71
2021/07/28 01:07:17;;;;;;;7.97;6.75;;;;;;;;;;3559678;40;20437;-71
2021/07/28 01:09:43;;;;;;;7.85;6.20;;;;;;;;;;3562265;40;20797;-71
2021/07/28 01:12:09;;;;;;;8.75;6.65;;;;;;;;;;3567154;40;20409;-70
2021/07/28 01:14:35;;;;;;;9.02;7.10;;;;;;;;;;3561227;40;20851;-71
2021/07/28 01:17:02;;;;;;;9.32;6.50;;;;;;;;;;3561116;40;20463;-70
2021/07/28 01:19:30;;;;;;;10.93;7.03;;;;;;;;;;3561583;40;20374;-70
2021/07/28 01:21:59;;;;;;;8.35;6.75;;;;;;;;;;3562227;40;20412;-70
2021/07/28 01:24:27;;;;;;;7.13;6.00;;;;;;;;;;3563069;40;20658;-71
2021/07/28 01:26:53;;;;;;;6.78;5.88;;;;;;;;;;3562998;40;20425;-71
2021/07/28 01:29:19;;;;;;;11.73;6.97;;;;;;;;;;3561875;40;20407;-70
2021/07/28 01:31:46;;;;;;;8.68;7.50;;;;;;;;;;3562168;40;20741;-71
2021/07/28 01:34:13;;;;;;;7.78;6.93;;;;;;;;;;3555861;40;20394;-71
2021/07/28 01:36:39;;;;;;;6.97;6.20;;;;;;;;;;3562381;40;20401;-72
2021/07/28 01:39:06;;;;;;;8.85;6.55;;;;;;;;;;3562724;40;20763;-71
2021/07/28 01:41:33;;;;;;;9.18;6.80;;;;;;;;;;3562476;40;20378;-71
2021/07/28 01:44:00;;;;;;;7.93;7.10;;;;;;;;;;3562525;40;20386;-71
2021/07/28 01:46:26;;;;;;;9.93;7.70;;;;;;;;;;3561051;40;20382;-70
2021/07/28 01:48:52;;;;;;;12.50;7.63;;;;;;;;;;3562561;40;20390;-71
2021/07/28 01:51:18;;;;;;;8.35;7.38;;;;;;;;;;3562667;40;20393;-70
2021/07/28 01:53:44;;;;;;;11.23;7.57;;;;;;;;;;3561235;40;20643;-70
2021/07/28 01:56:11;;;;;;;11.07;8.50;;;;;;;;;;3561292;40;20413;-71
2021/07/28 01:58:41;;;;;;;11.00;8.30;;;;;;;;;;3561103;40;20377;-71
2021/07/28 02:01:08;;;;;;;11.80;8.23;;;;;;;;;;3560975;40;20370;-71
2021/07/28 02:03:34;;;;;;;9.73;7.35;;;;;;;;;;3559311;40;20711;-71
2021/07/28 02:06:00;;;;;;;10.05;6.97;;;;;;;;;;3516061;40;1870865;-71
2021/07/28 02:08:26;;;;;;;8.77;7.05;;;;;;;;;;3561242;40;20395;-72
2021/07/28 02:10:52;;;;;;;9.93;7.27;;;;;;;;;;3561417;40;20786;-72
2021/07/28 02:13:19;;;;;;;8.85;7.28;;;;;;;;;;3552304;40;20410;-71
2021/07/28 02:15:47;;;;;;;10.05;7.75;;;;;;;;;;3561626;40;20536;-71
2021/07/28 02:18:14;;;;;;;8.85;7.20;;;;;;;;;;3561651;40;20520;-71
2021/07/28 02:20:40;;;;;;;6.20;5.60;;;;;;;;;;3560018;40;20413;-72
2021/07/28 02:23:06;;;;;;;8.32;6.15;;;;;;;;;;3561749;40;20804;-71
2021/07/28 02:25:33;;;;;;;7.80;7.07;;;;;;;;;;3560744;40;20727;-71
2021/07/28 02:27:59;;;;;;;9.68;7.05;;;;;;;;;;3561069;40;20370;-71
2021/07/28 02:30:25;;;;;;;8.00;7.18;;;;;;;;;;3561296;40;20374;-71
2021/07/28 02:32:53;;;;;;;12.32;7.68;;;;;;;;;;3559434;40;20403;-71
2021/07/28 02:35:19;;;;;;;8.57;6.55;;;;;;;;;;3561742;40;20381;-71
2021/07/28 02:37:46;;;;;;;9.38;7.22;;;;;;;;;;3561544;40;20378;-71
2021/07/28 02:40:13;;;;;;;8.88;6.63;;;;;;;;;;3561763;40;20364;-72
2021/07/28 02:42:39;;;;;;;9.00;7.77;;;;;;;;;;3562646;40;20386;-71
2021/07/28 02:45:06;;;;;;;8.00;6.07;;;;;;;;;;3562393;40;20471;-71
2021/07/28 02:47:33;;;;;;;7.15;6.45;;;;;;;;;;3562821;40;20532;-72
2021/07/28 02:50:00;;;;;;;7.47;6.68;;;;;;;;;;3563922;40;20364;-72
2021/07/28 02:52:26;;;;;;;9.80;7.30;;;;;;;;;;3563893;40;21459;-71
2021/07/28 02:54:52;;;;;;;8.05;6.38;;;;;;;;;;3564127;40;20378;-71
2021/07/28 02:57:18;;;;;;;7.63;6.80;;;;;;;;;;3559882;40;20473;-72
2021/07/28 02:59:45;;;;;;;7.93;6.60;;;;;;;;;;3562873;40;20498;-71
2021/07/28 03:02:11;;;;;;;9.03;7.93;;;;;;;;;;3563273;40;20831;-67
2021/07/28 03:04:37;;;;;;;6.90;6.28;;;;;;;;;;3562488;40;20494;-69
2021/07/28 03:07:05;;;;;;;12.77;7.93;;;;;;;;;;3562730;40;20420;-68
2021/07/28 03:09:31;;;;;;;11.05;7.70;;;;;;;;;;3562076;40;20454;-67
2021/07/28 03:11:57;;;;;;;6.38;5.78;;;;;;;;;;3564321;40;20528;-68
2021/07/28 03:14:23;;;;;;;10.35;7.82;;;;;;;;;;3560063;40;20797;-67
2021/07/28 03:16:50;;;;;;;12.60;8.32;;;;;;;;;;3562229;40;20401;-67
2021/07/28 03:19:16;;;;;;;11.02;7.57;;;;;;;;;;3560227;40;20447;-68
2021/07/28 03:21:43;;;;;;;7.93;6.22;;;;;;;;;;3562308;40;20363;-67
2021/07/28 03:24:10;;;;;;;9.20;7.72;;;;;;;;;;3563761;40;20472;-67
2021/07/28 03:26:36;;;;;;;8.50;7.23;;;;;;;;;;3562285;40;20385;-68
2021/07/28 03:29:03;;;;;;;7.57;6.38;;;;;;;;;;3563644;40;20364;-68
2021/07/28 03:31:29;;;;;;;6.82;6.07;;;;;;;;;;3565635;40;20366;-68
2021/07/28 03:33:55;;;;;;;9.50;7.22;;;;;;;;;;3564210;40;20355;-68
2021/07/28 03:36:21;;;;;;;8.10;6.40;;;;;;;;;;3563646;40;20398;-70
2021/07/28 03:38:47;;;;;;;7.75;6.68;;;;;;;;;;3563920;40;20385;-68
2021/07/28 03:41:15;;;;;;;12.88;8.20;;;;;;;;;;3563501;40;20395;-69
2021/07/28 03:43:41;;;;;;;7.75;6.95;;;;;;;;;;3563562;40;20466;-68
2021/07/28 03:46:07;;;;;;;8.00;6.47;;;;;;;;;;3563201;40;20800;-68
2021/07/28 03:48:33;;;;;;;8.60;7.72;;;;;;;;;;3562176;40;20393;-68
2021/07/28 03:50:59;;;;;;;7.93;6.82;;;;;;;;;;3563650;40;20396;-68
2021/07/28 03:53:25;;;;;;;10.18;7.00;;;;;;;;;;3561623;40;20415;-68
2021/07/28 03:55:52;;;;;;;7.97;6.72;;;;;;;;;;3562403;40;20393;-68
2021/07/28 03:58:19;;;;;;;11.45;7.63;;;;;;;;;;3561911;40;20770;-68
2021/07/28 04:00:45;;;;;;;7.03;6.32;;;;;;;;;;3562181;40;20501;-68
2021/07/28 04:03:12;;;;;;;10.38;6.88;;;;;;;;;;3560859;40;20383;-67
2021/07/28 04:05:38;;;;;;;8.60;6.43;;;;;;;;;;3563524;40;20710;-68
2021/07/28 04:08:04;;;;;;;7.15;6.28;;;;;;;;;;3562849;40;20674;-67
2021/07/28 04:10:30;;;;;;;7.07;5.82;;;;;;;;;;3563427;40;20458;-67
2021/07/28 04:12:57;;;;;;;9.53;6.97;;;;;;;;;;3561682;40;20387;-67
2021/07/28 04:15:24;;;;;;;6.95;6.00;;;;;;;;;;3551664;40;20798;-68
2021/07/28 04:17:50;;;;;;;5.47;4.90;;;;;;;;;;3562052;40;20806;-67
2021/07/28 04:20:16;;;;;;;7.35;6.13;;;;;;;;;;3562526;40;20393;-68
2021/07/28 04:22:43;;;;;;;7.57;5.47;;;;;;;;;;3562278;40;20385;-68
2021/07/28 04:25:09;;;;;;;5.10;4.70;;;;;;;;;;3561228;40;20391;-68
2021/07/28 04:27:36;;;;;;;10.32;6.43;;;;;;;;;;3559201;40;20814;-68
2021/07/28 04:30:03;;;;;;;6.57;5.93;;;;;;;;;;3560701;40;20393;-68
2021/07/28 04:32:34;;;;;;;6.63;5.30;;;;;;;;;;3561310;40;20366;-68
2021/07/28 04:35:00;;;;;;;5.68;5.13;;;;;;;;;;3561762;40;20409;-68
2021/07/28 04:37:26;;;;;;;6.32;5.70;;;;;;;;;;3562819;40;20381;-68
2021/07/28 04:39:52;;;;;;;10.07;8.63;;;;;;;;;;3555929;40;20385;-68
2021/07/28 04:42:18;;;;;;;10.52;9.40;;;;;;;;;;3562330;40;20389;-68
2021/07/28 04:44:45;;;;;;;12.30;9.07;;;;;;;;;;3561786;40;20370;-68
2021/07/28 04:47:11;;;;;;;9.77;8.82;;;;;;;;;;3561935;40;20382;-67
2021/07/28 04:49:38;;;;;;;11.25;9.63;;;;;;;;;;3562418;40;20779;-68
2021/07/28 04:52:07;;;;;;;12.90;9.73;;;;;;;;;;3562668;40;20655;-67
2021/07/28 04:54:33;;;;;;;10.10;9.00;;;;;;;;;;3559182;40;20417;-68
2021/07/28 04:56:59;;;;;;;11.03;9.07;;;;;;;;;;3563069;40;20660;-69
2021/07/28 04:59:25;;;;;;;9.73;8.27;;;;;;;;;;3565551;40;20674;-67
2021/07/28 05:01:51;;;;;;;11.88;8.10;;;;;;;;;;3558554;40;20417;-68
2021/07/28 05:04:18;;;;;;;8.75;7.82;;;;;;;;;;3561967;40;20479;-67
2021/07/28 05:06:45;;;;;;;7.95;7.07;;;;;;;;;;3552884;40;20897;-67
2021/07/28 05:09:12;;;;;;;11.05;8.27;;;;;;;;;;3560546;40;20394;-68
2021/07/28 05:11:38;;;;;;;9.23;7.78;;;;;;;;;;3563304;40;20387;-67
2021/07/28 05:14:05;;;;;;;11.70;8.90;;;;;;;;;;3561136;40;20758;-68
2021/07/28 05:16:32;;;;;;;9.93;8.77;;;;;;;;;;3563488;40;20950;-67
2021/07/28 05:18:58;;;;;;;7.63;6.85;;;;;;;;;;3562467;40;20374;-67
2021/07/28 05:21:25;;;;;;;7.75;7.05;;;;;;;;;;3554220;40;20448;-67
2021/07/28 05:23:53;;;;;;;9.15;6.80;;;;;;;;;;3560646;40;20398;-67
2021/07/28 05:26:19;;;;;;;10.63;8.23;;;;;;;;;;3562116;40;20451;-68
2021/07/28 05:28:45;;;;;;;7.50;6.73;;;;;;;;;;3561845;40;20414;-69
2021/07/28 05:31:11;;;;;;;10.52;7.93;;;;;;;;;;3561905;40;20385;-67
2021/07/28 05:33:37;;;;;;;8.55;7.47;;;;;;;;;;3563411;40;20776;-67
2021/07/28 05:36:04;;;;;;;11.15;8.93;;;;;;;;;;3556248;40;20417;-67
2021/07/28 05:38:30;;;;;;;9.77;8.15;;;;;;;;;;3556962;40;20405;-68
2021/07/28 05:40:57;;;;;;;9.98;8.90;;;;;;;;;;3565198;40;20726;-68
2021/07/28 05:43:24;;;;;;;9.18;8.02;;;;;;;;;;3546543;40;20661;-68
2021/07/28 05:45:53;;;;;;;9.57;8.13;;;;;;;;;;3562465;40;20435;-68
2021/07/28 05:48:19;;;;;;;11.07;7.38;;;;;;;;;;3559131;40;20390;-68
2021/07/28 05:50:46;;;;;;;8.90;7.25;;;;;;;;;;3562676;40;20403;-67
2021/07/28 05:53:12;;;;;;;8.45;7.07;;;;;;;;;;3554907;40;20427;-69
2021/07/28 05:55:38;;;;;;;8.30;6.45;;;;;;;;;;3562417;40;20362;-68
2021/07/28 05:58:06;;;;;;;6.53;5.85;;;;;;;;;;3558261;40;20401;-68
2021/07/28 06:00:32;;;;;;;8.00;6.65;;;;;;;;;;3564883;40;20531;-67
2021/07/28 06:02:58;;;;;;;7.15;5.50;;;;;;;;;;3552330;40;20449;-68
2021/07/28 06:05:24;;;;;;;6.88;6.25;;;;;;;;;;3562177;40;20797;-68
2021/07/28 06:07:50;;;;;;;7.80;5.63;;;;;;;;;;3560095;40;20417;-68
2021/07/28 06:10:17;;;;;;;7.68;5.35;;;;;;;;;;3560869;40;20389;-67
2021/07/28 06:12:43;;;;;;;6.07;5.50;;;;;;;;;;3555744;40;20386;-68
2021/07/28 06:15:12;;;;;;;8.05;6.35;;;;;;;;;;3561435;40;20397;-68
2021/07/28 06:17:38;;;;;;;9.27;6.10;;;;;;;;;;3560676;40;20403;-68
2021/07/28 06:20:04;;;;;;;8.82;5.90;;;;;;;;;;3559179;40;20385;-68
2021/07/28 06:22:30;;;;;;;6.90;6.05;;;;;;;;;;3560413;40;20397;-67
2021/07/28 06:24:57;;;;;;;10.17;6.47;;;;;;;;;;3563394;40;20374;-68
2021/07/28 06:27:23;;;;;;;8.03;6.07;;;;;;;;;;3563246;40;20429;-68
2021/07/28 06:29:49;;;;;;;8.40;6.70;;;;;;;;;;3557895;40;20718;-68
2021/07/28 06:32:17;;;;;;;8.65;6.22;;;;;;;;;;3563471;40;20786;-67
2021/07/28 06:34:43;;;;;;;7.63;6.10;;;;;;;;;;3561218;40;20371;-67
2021/07/28 06:37:09;;;;;;;11.45;7.43;;;;;;;;;;3564742;40;20377;-67
2021/07/28 06:39:36;;;;;;;9.00;6.95;;;;;;;;;;3561849;40;20403;-68
2021/07/28 06:42:02;;;;;;;9.13;6.17;;;;;;;;;;3562632;40;20703;-67
2021/07/28 06:44:28;;;;;;;8.23;5.88;;;;;;;;;;3561441;40;20412;-68
2021/07/28 06:46:54;;;;;;;10.23;6.82;;;;;;;;;;3561787;40;20413;-67
2021/07/28 06:49:22;;;;;;;8.70;6.30;;;;;;;;;;3559974;40;20504;-67
2021/07/28 06:51:48;;;;;;;9.43;6.90;;;22.00;99.90;;;;;;3562531;40;20450;-68
2021/07/28 06:54:14;;;;;;;9.47;7.17;;;21.80;99.90;;;;;;3563434;40;20396;-68
2021/07/28 06:56:39;;;;;;;7.87;7.07;;;21.80;99.90;;;;;;3565400;40;20400;-67
2021/07/28 06:59:05;;;;;;;11.98;8.10;;;21.80;99.90;;;;;;3562332;40;20425;-69
2021/07/28 07:01:31;;;;;;;9.98;7.78;;;;;;;;;;3547694;40;20401;-68
2021/07/28 07:03:58;;;;;;;12.35;7.35;;;;;;;;;;3562517;40;20404;-68
2021/07/28 07:06:25;;;;;;;9.13;6.50;;;;;;;;;;3556393;40;20415;-67
2021/07/28 07:08:52;;;;;;;9.68;6.50;;;;;;;;;;3561707;40;20483;-67
2021/07/28 07:11:18;;;;;;;10.48;7.20;;;;;;;;;;3563194;40;20397;-67
2021/07/28 07:13:44;;;;;;;9.03;6.77;;;;;;;;;;3563470;40;20728;-68
2021/07/28 07:16:10;;;;;;;9.10;6.63;;;;;;;;;;3562244;40;20778;-68
2021/07/28 07:18:36;;;;;;;6.45;5.43;;;;;;;;;;3559956;40;20407;-67
2021/07/28 07:21:02;;;;;;;7.47;5.80;;;;;;;;;;3562160;40;20389;-68
2021/07/28 07:23:30;;;;;;;10.15;5.93;;;;;;;;;;3560870;40;20382;-68
2021/07/28 07:25:58;;;;;;;6.82;5.50;;;;;;;;;;3563639;40;20384;-68
2021/07/28 07:28:25;;;;;;;5.63;4.70;;;;;;;;;;3562188;40;20415;-68
2021/07/28 07:30:51;;;;;;;7.22;5.78;;;;;;;;;;3554996;40;20375;-68
2021/07/28 07:36:02;;;;;;;8.30;5.32;;;;;;;;;;3561892;40;20456;-68
2021/07/28 07:38:30;;;;;;;6.45;4.97;;;;;;;;;;3561956;40;20390;-68
2021/07/28 07:40:56;;;;;;;11.20;5.90;;;;;;;;;;3561591;40;20386;-68
2021/07/28 07:43:22;;;;;;;8.30;5.13;;;;;;;;;;3561808;40;20414;-68
2021/07/28 07:45:48;;;;;;;7.70;4.82;;;;;;;;;;3560567;40;20444;-68
2021/07/28 07:48:14;;;;;;;7.88;5.95;;;;;;;;;;3554518;40;20389;-68
2021/07/28 07:50:40;;;;;;;8.32;5.30;;;;;;;;;;3562604;40;20363;-67
2021/07/28 07:53:06;;;;;;;9.45;6.35;;;;;;;;;;3559723;40;20488;-68
2021/07/28 07:55:35;;;;;;;6.35;4.25;;;;;;;;;;3563495;40;20405;-67
2021/07/28 07:58:01;;;;;;;6.82;4.50;;;;;;;;;;3560796;40;20401;-68
2021/07/28 08:00:27;;;;;;;8.52;5.53;;;;;;;;;;3563170;40;20393;-68
2021/07/28 08:02:53;;;;;;;8.77;6.37;;;;;;;;;;3558467;40;20813;-68
2021/07/28 08:05:19;;;;;;;7.40;6.20;;;;;;;;;;3562426;40;20416;-67
2021/07/28 08:07:45;;;;;;;7.23;5.60;;;;;;;;;;3559251;40;20785;-67
2021/07/28 08:10:12;;;;;;;5.32;4.15;;;;;;;;;;3564218;40;20520;-67
2021/07/28 08:12:39;;;;;;;5.63;3.90;;;;;;;;;;3555736;40;20391;-70
2021/07/28 08:15:06;;;;;;;6.30;4.38;;;;;;;;;;3562550;40;20371;-69
2021/07/28 08:17:32;;;;;;;6.38;4.05;;;;;;;;;;3553020;40;20403;-70
2021/07/28 08:20:00;;;;;;;5.30;3.95;;;;;;;;;;3553870;40;20381;-69
2021/07/28 08:22:27;;;;;;;5.22;3.67;;;;;;;;;;3560347;40;20413;-70
2021/07/28 08:24:53;;;;;;;7.90;5.10;;;;;;;;;;3562036;40;20467;-68
2021/07/28 08:27:20;;;;;;;6.25;4.22;;;;;;;;;;3560432;40;20556;-69
2021/07/28 08:29:47;;;;;;;8.55;5.10;;;;;;;;;;3563432;40;20528;-69
2021/07/28 08:32:14;;;;;;;7.68;5.05;;;;;;;;;;3562130;40;20751;-68
2021/07/28 08:34:40;;;;;;;9.40;5.68;;;;;;;;;;3563189;40;20696;-69
2021/07/28 08:37:06;;;;;;;9.07;5.43;;;;;;;;;;3558967;40;20807;-69
2021/07/28 08:39:33;;;;;;;7.65;5.60;;;;;;;;;;3560785;40;20397;-69
2021/07/28 08:42:04;;;;;;;7.72;4.35;;;;;;;;;;3562930;40;20362;-69
2021/07/28 08:44:32;;;;;;;7.93;5.38;;;;;;;;;;3563164;40;21025;-69
2021/07/28 08:47:00;;;;;;;7.50;5.37;;;;;;;;;;3560953;40;20394;-71
2021/07/28 08:49:27;;;;;;;7.60;5.03;;;;;;;;;;3563234;40;20654;-69
2021/07/28 08:51:53;;;;;;;3.92;3.47;;;;;;;;;;3555906;40;20472;-72
2021/07/28 08:54:22;;;;;;;5.65;4.40;;;;;;;;;;3562199;40;20481;-71
2021/07/28 08:56:48;;;;;;;5.63;4.27;;;;;;;;;;3562351;40;20376;-69
2021/07/28 08:59:24;;;;;;;7.22;4.75;;;;;;;;;;3563729;40;20415;-69
2021/07/28 09:01:50;;;;;;;10.75;5.88;;;;;;;;;;3562494;40;20385;-69
2021/07/28 09:04:18;;;;;;;5.95;4.82;;;;;;;;;;3563995;40;20458;-69
2021/07/28 09:06:44;;;;;;;8.88;6.55;;;;;;;;;;3562003;40;20385;-69
2021/07/28 09:09:10;;;;;;;10.10;6.65;;;;;;;;;;3557649;40;20799;-68
2021/07/28 09:11:50;;;;;;;11.88;7.10;;;;;;;;;;3561790;40;20398;-68
2021/07/28 09:14:18;;;;;;;10.32;7.13;;;;;;;;;;3561908;40;20372;-67
2021/07/28 09:16:45;;;;;;;9.70;6.80;;;;;;;;;;3562961;40;20502;-68
2021/07/28 09:19:11;;;;;;;9.80;6.72;;;;;;;;;;3561021;40;20386;-68
2021/07/28 09:21:38;;;;;;;6.07;5.10;;;;;;;;;;3562413;40;20965;-67
2021/07/28 09:24:09;;;;;;;7.13;5.40;;;;;;;;;;3560065;40;20399;-68
2021/07/28 09:26:39;;;;;;;9.50;7.18;;;;;;;;;;3561084;40;20388;-68
2021/07/28 09:29:06;;;;;;;7.82;5.63;;;;;;;;;;3562355;40;20362;-68
2021/07/28 09:31:37;;;;;;;9.57;6.90;;;;;;;;;;3562149;40;20441;-69
2021/07/28 09:34:27;;;;;;;11.05;7.28;;;;;;;;;;3562351;40;20839;-69
2021/07/28 09:36:55;;;;;;;10.35;6.85;;;;;;;;;;3521919;40;20402;-68
2021/07/28 09:39:24;;;;;;;7.78;6.55;;;;;;;;;;3530300;40;20778;-68
2021/07/28 09:41:50;;;;;;;7.95;5.82;;;;;;;;;;3534164;40;20391;-68
2021/07/28 09:44:23;;;;;;;8.85;6.22;;;;;;;;;;3534922;40;20426;-68
2021/07/28 09:47:01;;;;;;;7.03;5.28;;;;;;;;;;3534110;40;20403;-67
2021/07/28 09:49:27;;;;;;;12.73;6.97;;;;;;;;;;3532528;40;20393;-68
2021/07/28 09:51:55;;;;;;;8.88;6.80;;;;;;;;;;3533929;40;20449;-70
2021/07/28 09:54:21;;;;;;;11.70;7.70;;;;;;;;;;3529071;40;20498;-68
2021/07/28 09:56:49;;;;;;;11.52;6.85;;;;;;;;;;3533302;40;20407;-69
2021/07/28 09:59:15;;;;;;;7.03;6.07;;;;;;;;;;3533726;40;20645;-70
2021/07/28 10:01:42;;;;;;;9.70;7.55;;;;;;;;;;3534045;40;20387;-69
2021/07/28 10:04:10;;;;;;;8.77;6.10;;;;;;;;;;3533478;40;20445;-69
2021/07/28 10:06:39;;;;;;;10.27;6.50;;;21.80;99.90;;;;;;3533777;40;20419;-69
2021/07/28 10:09:10;;;;;;;8.23;5.38;;;23.20;99.90;;;;;;3551128;40;20399;-69
2021/07/28 10:11:37;;;;;;;5.63;4.57;;;;;;;;;;3561700;40;20370;-68
2021/07/28 10:14:04;;;;;;;12.77;7.40;;;;;;;;;;3562717;40;20492;-68
2021/07/28 10:16:31;;;;;;;5.75;4.95;;;;;;;;;;3560482;40;20412;-69
2021/07/28 10:19:00;;;;;;;9.27;6.13;;;;;;;;;;3560490;40;20373;-69
2021/07/28 10:21:26;;;;;;;14.13;12.68;;;;;;;;;;3557539;40;20435;-69
2021/07/28 10:23:53;;;;;;;13.88;12.27;;;;;;;;;;3561540;40;20380;-68
2021/07/28 10:26:20;;;;;;;14.68;11.98;;;;;;;;;;3561067;40;20403;-67
2021/07/28 10:28:48;;;;;;;15.02;13.43;;;;;;;;;;3559030;40;20409;-67
2021/07/28 10:31:15;;;;;;;17.95;15.20;;;;;;;;;;3564062;40;20411;-70
2021/07/28 10:33:49;;;;;;;18.00;14.50;;;;;;;;;;3560492;40;20482;-69
2021/07/28 10:36:15;;;;;;;16.55;12.05;;;;;;;;;;3554326;40;20395;-69
2021/07/28 10:38:54;;;;;;;18.87;13.17;;;;;;;;;;3563702;40;20383;-69
2021/07/28 10:41:42;;;;;;;18.55;15.57;;;;;;;;;;3561176;40;20373;-72
2021/07/28 10:44:10;;;;;;;17.00;14.05;;;;;;;;;;3560670;40;20407;-69
2021/07/28 10:46:51;;;;;;;17.60;15.75;;;;;;;;;;3560089;40;20496;-69
2021/07/28 10:49:43;;;;;;;20.40;18.17;;;;;;;;;;3561331;40;20399;-69
2021/07/28 10:52:13;;;;;;;25.38;21.55;;;;;;;;;;3557718;40;20475;-69
2021/07/28 10:54:58;;;;;;;26.52;23.00;;;;;;;;;;3553683;40;20399;-70
2021/07/28 10:57:46;;;;;;;28.83;24.48;;;;;;;;;;3563341;40;20622;-69
2021/07/28 11:00:13;;;;;;;28.95;25.17;;;;;;;;;;3565922;40;20753;-69
2021/07/28 11:02:54;;;;;;;30.83;26.40;;;;;;;;;;3563103;40;20639;-68
2021/07/28 11:05:21;;;;;;;27.33;24.35;;;;;;;;;;3561617;40;20497;-68
2021/07/28 11:08:06;;;;;;;26.17;21.98;;;;;;;;;;3563967;40;20652;-68
2021/07/28 11:10:33;;;;;;;26.25;23.45;;;;;;;;;;3565241;40;20350;-68
2021/07/28 11:12:59;;;;;;;22.67;19.92;;;;;;;;;;3562736;40;20505;-68
2021/07/28 11:15:27;;;;;;;21.20;19.08;;;;;;;;;;3563903;40;20383;-68
2021/07/28 11:17:53;;;;;;;26.48;22.40;;;;;;;;;;3556175;40;20410;-71
2021/07/28 11:20:25;;;;;;;21.05;18.50;;;;;;;;;;3553897;40;20416;-68
2021/07/28 11:22:51;;;;;;;24.38;20.95;;;;;;;;;;3566057;40;20376;-68
2021/07/28 11:25:17;;;;;;;22.85;20.42;;;;;;;;;;3564475;40;20412;-68
2021/07/28 11:27:58;;;;;;;20.30;17.75;;;;;;;;;;3565379;40;20381;-68
2021/07/28 11:30:24;;;;;;;21.33;18.50;;;;;;;;;;3564431;40;20432;-68
2021/07/28 11:32:52;;;;;;;17.70;15.90;;;;;;;;;;3566452;40;20863;-68
2021/07/28 11:35:19;;;;;;;19.00;16.73;;;;;;;;;;3562600;40;20432;-68
2021/07/28 11:37:45;;;;;;;19.30;17.30;;;;;;;;;;3565090;40;20410;-68
2021/07/28 11:40:11;;;;;;;18.83;16.83;;;;;;;;;;3566657;40;20380;-68
2021/07/28 11:42:38;;;;;;;19.20;15.10;;;;;;;;;;3565205;40;20373;-68
2021/07/28 11:45:04;;;;;;;18.48;16.00;;;;;;;;;;3561856;40;20374;-68
2021/07/28 11:47:31;;;;;;;16.80;14.82;;;;;;;;;;3556415;40;20393;-68
2021/07/28 11:50:02;;;;;;;16.33;14.45;;;;;;;;;;3562322;40;20757;-68
2021/07/28 11:52:29;;;;;;;18.30;15.47;;;;;;;;;;3563669;40;20809;-68
2021/07/28 11:54:55;;;;;;;15.10;12.70;;;;;;;;;;3562613;40;20472;-71
2021/07/28 11:57:21;;;;;;;11.98;10.32;;;24.40;99.90;;;;;;3562449;40;20674;-70
2021/07/28 11:59:48;;;;;;;15.95;11.93;;;;;;;;;;3556447;40;20410;-68
2021/07/28 12:02:19;;;;;;;10.73;9.52;;;;;;;;;;3559770;40;20406;-68
2021/07/28 12:04:47;;;;;;;12.45;11.18;;;;;;;;;;3551107;40;20433;-68
2021/07/28 12:07:16;;;;;;;14.60;12.30;;;24.30;99.90;;;;;;3562183;40;20447;-69
2021/07/28 12:09:42;;;;;;;14.27;11.37;;;;;;;;;;3563027;40;20465;-69
2021/07/28 12:12:19;;;;;;;12.75;11.38;;;;;;;;;;3560394;40;20391;-68
2021/07/28 12:14:46;;;;;;;12.75;10.93;;;;;;;;;;3563482;40;20752;-68
2021/07/28 12:17:23;;;;;;;14.15;11.77;;;;;;;;;;3562787;40;20397;-69
2021/07/28 12:19:53;;;;;;;13.25;11.07;;;;;;;;;;3558239;40;20401;-68
2021/07/28 12:22:28;;;;;;;14.77;11.15;;;;;;;;;;3560058;40;20390;-68
2021/07/28 12:25:11;;;;;;;12.70;11.40;;;;;;;;;;3563495;40;20479;-69
2021/07/28 12:27:56;;;;;;;12.38;10.77;;;;;;;;;;3563864;40;20382;-69
2021/07/28 12:30:23;;;;;;;13.10;10.32;;;;;;;;;;3537573;40;20650;-69
2021/07/28 12:32:52;;;;;;;9.27;8.30;;;;;;;;;;3539527;40;20395;-68
2021/07/28 12:35:28;;;;;;;12.30;10.30;;;;;;;;;;3539179;40;20469;-68
2021/07/28 12:38:09;;;;;;;11.95;9.30;;;;;;;;;;3538016;40;20383;-70
2021/07/28 12:40:36;;;;;;;12.05;8.65;;;;;;;;;;3538793;40;20407;-68
2021/07/28 12:43:04;;;;;;;10.33;9.30;;;;;;;;;;3538795;40;20399;-68
2021/07/28 12:45:30;;;;;;;9.65;8.18;;;;;;;;;;3539160;40;20442;-68
2021/07/28 12:47:57;;;;;;;9.65;8.65;;;;;;;;;;3539243;40;20405;-67
2021/07/28 12:50:23;;;;;;;8.88;7.97;;;;;;;;;;3538183;40;20432;-68
2021/07/28 12:52:50;;;;;;;9.32;7.70;;;;;;;;;;3538608;40;20437;-68
2021/07/28 12:55:17;;;;;;;8.25;7.50;;;;;;;;;;3538824;40;20706;-68
2021/07/28 12:57:43;;;;;;;11.37;8.90;;;;;;;;;;3540261;40;20389;-69
2021/07/28 13:00:10;;;;;;;9.03;7.80;;;;;;;;;;3539355;40;20411;-68
2021/07/28 13:02:37;;;;;;;10.48;7.63;;;;;;;;;;3561278;40;20415;-68
2021/07/28 13:05:04;;;;;;;11.60;7.90;;;;;;;;;;3552356;40;20519;-69
2021/07/28 13:07:55;;;;;;;7.90;7.07;;;;;;;;;;3564087;40;20401;-68
2021/07/28 13:10:22;;;;;;;7.80;6.50;;;;;;;;;;3560936;40;20380;-69
2021/07/28 13:12:48;;;;;;;7.05;6.00;;;;;;;;;;3563297;40;20467;-68
2021/07/28 13:15:15;;;;;;;7.70;6.13;;;;;;;;;;3561118;40;20397;-68
2021/07/28 13:17:41;;;;;;;6.88;5.05;;;;;;;;;;3561246;40;20379;-69
2021/07/28 13:20:08;;;;;;;6.00;5.38;;;;;;;;;;3561644;40;20650;-69
2021/07/28 13:22:34;;;;;;;7.20;5.90;;;;;;;;;;3562095;40;20429;-68
2021/07/28 13:25:00;;;;;;;6.10;5.50;;;;;;;;;;3561230;40;20376;-68
2021/07/28 13:27:28;;;;;;;6.30;5.43;;;;;;;;;;3561592;40;20385;-68
2021/07/28 13:29:54;;;;;;;7.38;5.85;;;;;;;;;;3559454;40;20666;-68
2021/07/28 13:32:20;;;;;;;8.47;5.90;;;;;;;;;;3561112;40;20405;-68
2021/07/28 13:34:46;;;;;;;10.30;5.30;;;;;;;;;;3561992;40;20397;-68
2021/07/28 13:37:12;;;;;;;5.40;4.90;;;;;;;;;;3558301;40;20451;-68
2021/07/28 13:39:39;;;;;;;8.43;5.32;;;;;;;;;;3561361;40;20585;-68
2021/07/28 13:42:05;;;;;;;7.83;5.57;;;;;;;;;;3555529;40;20408;-69
2021/07/28 13:44:32;;;;;;;7.90;5.37;;;;;;;;;;3561413;40;20768;-68
2021/07/28 13:46:59;;;;;;;6.03;5.43;;;;;;;;;;3561030;40;20499;-68
2021/07/28 13:49:25;;;;;;;8.40;5.93;;;;;;;;;;3561005;40;20389;-69
2021/07/28 13:51:51;;;;;;;5.75;4.25;;;;;;;;;;3561856;40;20369;-68
2021/07/28 13:54:18;;;;;;;7.20;5.70;;;;;;;;;;3560252;40;20397;-68
2021/07/28 13:56:44;;;;;;;6.55;5.70;;;;;;;;;;3561285;40;20378;-70
2021/07/28 13:59:11;;;;;;;5.47;4.97;;;;;;;;;;3562922;40;20654;-68
2021/07/28 14:01:39;;;;;;;5.72;4.47;;;;;;;;;;3561803;40;20382;-68
2021/07/28 14:04:05;;;;;;;5.35;4.68;;;;;;;;;;3562895;40;20400;-68
2021/07/28 14:06:31;;;;;;;8.43;5.65;;;;;;;;;;3560550;40;20401;-68
2021/07/28 14:08:57;;;;;;;6.15;4.90;;;;;;;;;;3561578;40;20651;-68
2021/07/28 14:11:23;;;;;;;5.47;4.63;;;;;;;;;;3558550;40;20406;-69
2021/07/28 14:13:50;;;;;;;4.93;4.40;;;;;;;;;;3561641;40;20401;-69
2021/07/28 14:16:16;;;;;;;5.93;4.40;;;;;;;;;;3545792;40;20498;-69
2021/07/28 14:18:44;;;;;;;4.77;4.10;;;;;;;;;;3562522;40;20409;-68
2021/07/28 14:21:10;;;;;;;5.65;4.63;;;;;;;;;;3559277;40;20465;-68
2021/07/28 14:23:36;;;;;;;5.78;5.28;;;;;;;;;;3561226;40;20772;-68
2021/07/28 14:26:02;;;;;;;7.00;4.75;;;;;;;;;;3557934;40;20675;-69
2021/07/28 14:28:29;;;;;;;5.90;4.83;;;;;;;;;;3561438;40;20649;-67
2021/07/28 14:30:55;;;;;;;4.97;4.03;;;;;;;;;;3560713;40;20654;-68
2021/07/28 14:33:21;;;;;;;5.50;4.68;;;;;;;;;;3560739;40;20798;-68
2021/07/28 14:35:48;;;;;;;5.32;4.22;;;;;;;;;;3560255;40;20426;-70
2021/07/28 14:38:15;;;;;;;5.18;4.65;;;;;;;;;;3561357;40;20808;-68
2021/07/28 14:40:41;;;;;;;5.05;4.30;;;;;;;;;;3563039;40;20375;-69